createdAt,value
2019-05-22T00:01:25.653Z,99.32
2019-05-22T00:04:00.964Z,99.14
2019-05-22T00:06:36.845Z,98.63
2019-05-22T00:09:11.059Z,96.78
2019-05-22T00:11:44.448Z,97.87
2019-05-22T00:14:15.774Z,97.28
2019-05-22T00:16:47.106Z,97.58
2019-05-22T00:19:18.949Z,97.32
2019-05-22T00:21:51.444Z,96.67
2019-05-22T00:24:25.465Z,96.81
2019-05-22T00:26:55.819Z,96.96
2019-05-22T00:29:25.449Z,97.28
2019-05-22T00:31:56.280Z,96.53
2019-05-22T00:34:26.512Z,96.65
2019-05-22T00:36:59.042Z,96.59
2019-05-22T00:39:30.873Z,96.70
2019-05-22T00:42:01.180Z,96.45
2019-05-22T00:44:35.217Z,96.40
2019-05-22T00:47:14.157Z,97.25
2019-05-22T00:49:46.627Z,96.98
2019-05-22T00:52:42.872Z,96.62
2019-05-22T00:55:30.022Z,95.58
2019-05-22T00:58:11.328Z,96.16
2019-05-22T01:00:50.833Z,96.70
2019-05-22T01:03:24.735Z,96.49
2019-05-22T01:05:55.082Z,96.54
2019-05-22T01:08:28.470Z,95.17
2019-05-22T01:11:00.627Z,96.16
2019-05-22T01:13:33.167Z,95.88
2019-05-22T01:16:03.252Z,95.37
2019-05-22T01:18:33.034Z,94.44
2019-05-22T01:21:04.741Z,95.41
2019-05-22T01:23:39.099Z,95.44
2019-05-22T01:26:11.519Z,95.05
2019-05-22T01:28:41.061Z,94.30
2019-05-22T01:31:15.594Z,94.80
2019-05-22T01:33:54.745Z,95.34
2019-05-22T01:36:26.836Z,95.51
2019-05-22T01:39:03.593Z,95.55
2019-05-22T01:41:34.169Z,95.05
2019-05-22T01:44:07.048Z,94.79
2019-05-22T01:46:40.109Z,95.06
2019-05-22T01:49:13.354Z,93.84
2019-05-22T01:51:43.040Z,94.65
2019-05-22T01:54:12.777Z,94.42
2019-05-22T01:56:42.992Z,93.54
2019-05-22T01:59:13.819Z,93.83
2019-05-22T02:01:45.381Z,93.77
2019-05-22T02:04:16.913Z,93.71
2019-05-22T02:06:48.162Z,93.64
2019-05-22T02:09:28.872Z,94.13
2019-05-22T02:12:07.738Z,93.81
2019-05-22T02:14:41.471Z,94.09
2019-05-22T02:17:12.199Z,94.19
2019-05-22T02:19:42.090Z,94.74
2019-05-22T02:22:13.218Z,94.88
2019-05-22T02:24:42.684Z,94.92
2019-05-22T02:27:13.921Z,94.91
2019-05-22T02:29:44.829Z,95.53
2019-05-22T02:32:14.856Z,95.70
2019-05-22T02:34:44.974Z,95.99
2019-05-22T02:37:16.334Z,95.99
2019-05-22T02:39:47.371Z,96.05
2019-05-22T02:42:23.776Z,95.94
2019-05-22T02:44:53.328Z,95.77
2019-05-22T02:47:23.838Z,96.21
2019-05-22T02:49:56.117Z,96.32
2019-05-22T02:52:27.306Z,96.35
2019-05-22T02:54:57.100Z,96.04
2019-05-22T02:57:28.387Z,95.74
2019-05-22T02:59:59.206Z,96.42
2019-05-22T03:02:30.339Z,96.40
2019-05-22T03:05:11.695Z,95.30
2019-05-22T03:07:41.786Z,96.48
2019-05-22T03:10:16.234Z,96.19
2019-05-22T03:12:46.518Z,96.18
2019-05-22T03:15:18.082Z,95.03
2019-05-22T03:17:53.506Z,96.24
2019-05-22T03:20:24.265Z,95.94
2019-05-22T03:23:14.571Z,95.81
2019-05-22T03:25:44.703Z,97.06
2019-05-22T03:28:15.157Z,97.77
2019-05-22T03:30:45.491Z,98.12
2019-05-22T03:33:16.719Z,99.06
2019-05-22T03:35:48.623Z,98.82
2019-05-22T03:38:20.639Z,99.30
2019-05-22T03:40:52.487Z,99.37
2019-05-22T03:43:23.824Z,98.67
2019-05-22T03:45:56.466Z,99.68
2019-05-22T03:48:28.409Z,98.56
2019-05-22T03:51:07.129Z,98.49
2019-05-22T03:53:36.801Z,98.50
2019-05-22T03:56:06.363Z,98.82
2019-05-22T03:58:36.409Z,98.58
2019-05-22T04:01:06.890Z,97.97
2019-05-22T04:03:36.346Z,97.91
2019-05-22T04:06:07.100Z,98.10
2019-05-22T04:08:37.667Z,97.67
2019-05-22T04:11:08.843Z,96.21
2019-05-22T04:13:38.910Z,97.34
2019-05-22T04:16:10.587Z,97.22
2019-05-22T04:18:40.864Z,96.92
2019-05-22T04:21:10.300Z,96.90
2019-05-22T04:23:40.076Z,96.54
2019-05-22T04:26:12.854Z,96.63
2019-05-22T04:28:51.139Z,96.87
2019-05-22T04:31:31.666Z,97.61
2019-05-22T04:34:01.655Z,97.98
2019-05-22T04:36:31.055Z,98.69
2019-05-22T04:39:02.322Z,98.31
2019-05-22T04:41:32.601Z,98.29
2019-05-22T04:44:01.985Z,98.32
2019-05-22T04:46:31.651Z,98.20
2019-05-22T04:49:01.071Z,97.60
2019-05-22T04:51:31.200Z,96.33
2019-05-22T04:54:00.695Z,95.71
2019-05-22T04:56:30.824Z,96.55
2019-05-22T04:59:02.235Z,95.95
2019-05-22T05:01:32.520Z,95.04
2019-05-22T05:04:03.103Z,95.08
2019-05-22T05:06:35.879Z,95.12
2019-05-22T05:09:10.694Z,94.56
2019-05-22T05:11:40.590Z,94.20
2019-05-22T05:14:10.122Z,94.91
2019-05-22T05:16:39.999Z,94.51
2019-05-22T05:19:09.715Z,94.26
2019-05-22T05:21:39.890Z,94.10
2019-05-22T05:24:09.762Z,93.73
2019-05-22T05:26:39.407Z,93.32
2019-05-22T05:29:27.931Z,93.01
2019-05-22T05:31:59.098Z,92.35
2019-05-22T05:34:52.137Z,92.04
2019-05-22T05:37:23.705Z,91.52
2019-05-22T05:40:43.243Z,91.05
2019-05-22T05:43:17.671Z,91.68
2019-05-22T05:45:49.854Z,91.09
2019-05-22T05:48:31.534Z,91.02
2019-05-22T05:51:39.396Z,89.51
2019-05-22T05:54:20.573Z,89.77
2019-05-22T05:56:51.272Z,90.22
2019-05-22T05:59:25.029Z,89.84
2019-05-22T06:01:58.033Z,89.02
2019-05-22T06:04:37.193Z,87.70
2019-05-22T06:07:26.473Z,88.39
2019-05-22T06:10:33.010Z,87.26
2019-05-22T06:13:04.544Z,85.86
2019-05-22T06:16:00.609Z,84.02
2019-05-22T06:18:35.754Z,83.70
2019-05-22T06:21:07.506Z,81.82
2019-05-22T06:24:14.315Z,81.40
2019-05-22T06:26:54.809Z,80.63
2019-05-22T06:29:28.251Z,82.00
2019-05-22T06:32:43.329Z,81.32
2019-05-22T06:35:13.173Z,82.96
2019-05-22T06:37:51.463Z,81.89
2019-05-22T06:40:21.322Z,83.25
2019-05-22T06:43:25.818Z,82.49
2019-05-22T06:45:55.529Z,84.14
2019-05-22T06:48:24.989Z,85.81
2019-05-22T06:50:54.544Z,86.24
2019-05-22T06:53:24.087Z,86.74
2019-05-22T06:55:53.509Z,87.59
2019-05-22T06:58:22.940Z,88.00
2019-05-22T07:00:52.599Z,88.38
2019-05-22T07:03:22.242Z,89.43
2019-05-22T07:05:53.525Z,89.78
2019-05-22T07:08:23.508Z,89.72
2019-05-22T07:10:53.478Z,89.81
2019-05-22T07:13:23.001Z,89.75
2019-05-22T07:15:53.965Z,88.47
2019-05-22T07:18:26.737Z,89.25
2019-05-22T07:20:58.199Z,87.94
2019-05-22T07:23:29.672Z,86.71
2019-05-22T07:26:00.951Z,85.60
2019-05-22T07:28:31.471Z,86.39
2019-05-22T07:31:01.375Z,86.24
2019-05-22T07:33:30.828Z,86.17
2019-05-22T07:36:17.213Z,85.21
2019-05-22T07:38:33.529Z,84.68
2019-05-22T07:41:03.996Z,84.66
2019-05-22T07:43:33.941Z,84.30
2019-05-22T07:46:03.678Z,84.54
2019-05-22T07:48:33.378Z,84.36
2019-05-22T07:51:03.570Z,83.48
2019-05-22T07:53:33.169Z,82.58
2019-05-22T07:56:06.101Z,82.94
2019-05-22T07:58:36.166Z,82.72
2019-05-22T08:01:06.580Z,79.92
2019-05-22T08:03:37.180Z,80.53
2019-05-22T08:06:06.942Z,79.54
2019-05-22T08:08:37.238Z,75.30
2019-05-22T08:11:07.791Z,72.36
2019-05-22T08:13:37.974Z,73.63
2019-05-22T08:16:08.514Z,72.79
2019-05-22T08:18:39.473Z,70.34
2019-05-22T08:21:09.232Z,71.03
2019-05-22T08:23:38.984Z,70.11
2019-05-22T08:26:10.786Z,68.66
2019-05-22T08:28:41.170Z,69.90
2019-05-22T08:31:12.878Z,69.39
2019-05-22T08:33:42.846Z,70.87
2019-05-22T08:36:12.365Z,71.23
2019-05-22T08:38:42.802Z,71.25
2019-05-22T08:41:14.552Z,72.51
2019-05-22T08:44:15.457Z,71.96
2019-05-22T08:46:18.353Z,71.56
2019-05-22T08:48:49.285Z,72.64
2019-05-22T08:51:19.032Z,73.63
2019-05-22T08:53:49.118Z,73.15
2019-05-22T08:56:19.937Z,72.72
2019-05-22T08:58:50.235Z,72.27
2019-05-22T09:01:19.883Z,72.47
2019-05-22T09:03:49.768Z,71.55
2019-05-22T09:06:19.498Z,69.11
2019-05-22T09:08:48.937Z,68.35
2019-05-22T09:11:18.394Z,69.41
2019-05-22T09:13:47.952Z,66.93
2019-05-22T09:16:18.543Z,68.65
2019-05-22T09:18:48.324Z,68.39
2019-05-22T09:21:18.271Z,67.76
2019-05-22T09:23:48.129Z,67.60
2019-05-22T09:26:18.473Z,66.24
2019-05-22T09:28:48.403Z,65.95
2019-05-22T09:31:18.749Z,67.22
2019-05-22T09:33:48.230Z,66.72
2019-05-22T09:36:17.807Z,67.45
2019-05-22T09:38:47.508Z,67.30
2019-05-22T09:41:17.229Z,66.54
2019-05-22T09:43:57.154Z,63.17
2019-05-22T09:46:26.607Z,62.38
2019-05-22T09:48:56.858Z,62.40
2019-05-22T09:51:26.423Z,62.31
2019-05-22T09:53:56.989Z,60.66
2019-05-22T09:56:27.210Z,60.19
2019-05-22T09:58:56.634Z,57.38
2019-05-22T10:01:26.198Z,57.80
2019-05-22T10:03:55.749Z,58.33
2019-05-22T10:06:25.332Z,56.46
2019-05-22T10:08:54.781Z,59.88
2019-05-22T10:11:24.560Z,57.17
2019-05-22T10:13:54.033Z,55.40
2019-05-22T10:16:23.479Z,55.48
2019-05-22T10:18:53.709Z,56.27
2019-05-22T10:21:23.541Z,54.00
2019-05-22T10:23:53.196Z,52.70
2019-05-22T10:26:23.253Z,53.50
2019-05-22T10:28:53.107Z,55.91
2019-05-22T10:31:23.320Z,55.79
2019-05-22T10:33:52.699Z,56.85
2019-05-22T10:36:22.805Z,57.68
2019-05-22T10:38:52.199Z,56.50
2019-05-22T10:41:22.247Z,56.06
2019-05-22T10:43:52.048Z,55.79
2019-05-22T10:46:22.199Z,56.70
2019-05-22T10:48:51.609Z,55.38
2019-05-22T10:51:21.403Z,56.02
2019-05-22T10:53:50.963Z,56.22
2019-05-22T10:56:20.388Z,57.67
2019-05-22T10:58:49.801Z,55.69
2019-05-22T11:01:19.357Z,52.61
2019-05-22T11:03:48.789Z,51.32
2019-05-22T11:06:18.529Z,52.35
2019-05-22T11:08:48.068Z,53.35
2019-05-22T11:11:17.843Z,54.51
2019-05-22T11:14:00.665Z,55.86
2019-05-22T11:16:19.127Z,52.09
2019-05-22T11:18:51.281Z,52.12
2019-05-22T11:21:20.231Z,51.72
2019-05-22T11:23:52.404Z,53.64
2019-05-22T11:26:20.070Z,51.03
2019-05-22T11:28:52.025Z,50.20
2019-05-22T11:31:24.401Z,49.66
2019-05-22T11:33:53.079Z,48.06
2019-05-22T11:36:25.554Z,48.74
2019-05-22T12:14:07.835Z,40.60
2019-05-22T12:16:36.776Z,36.44
2019-05-22T12:19:06.126Z,36.83
2019-05-22T12:21:35.051Z,33.45
2019-05-22T12:24:03.758Z,33.72
2019-05-22T12:26:32.758Z,37.46
2019-05-22T12:29:01.917Z,38.12
2019-05-22T12:31:32.711Z,35.03
2019-05-22T12:34:01.929Z,34.96
2019-05-22T12:36:30.616Z,34.63
2019-05-22T12:38:59.920Z,34.42
2019-05-22T12:41:28.994Z,30.07
2019-05-22T12:43:57.710Z,29.72
2019-05-22T12:46:28.358Z,32.92
2019-05-22T12:48:57.631Z,34.73
2019-05-22T12:51:27.309Z,36.51
2019-05-22T12:53:56.232Z,37.06
2019-05-22T12:56:26.071Z,35.58
2019-05-22T12:58:56.658Z,35.35
2019-05-22T13:01:26.077Z,32.03
2019-05-22T13:03:56.948Z,32.91
2019-05-22T13:06:26.011Z,31.33
2019-05-22T13:08:54.738Z,30.84
2019-05-22T13:11:23.993Z,33.16
2019-05-22T13:13:52.657Z,32.69
2019-05-22T13:16:21.886Z,34.14
2019-05-22T13:18:51.387Z,31.35
2019-05-22T13:21:22.399Z,32.96
2019-05-22T13:23:52.426Z,31.19
2019-05-22T13:26:22.164Z,29.25
2019-05-22T13:28:50.920Z,27.98
2019-05-22T13:31:19.859Z,28.14
2019-05-22T13:33:48.666Z,27.29
2019-05-22T13:36:19.039Z,26.29
2019-05-22T13:38:48.386Z,26.23
2019-05-22T13:41:17.278Z,28.49
2019-05-22T13:43:46.489Z,30.12
2019-05-22T13:46:15.941Z,33.22
2019-05-22T13:48:44.913Z,33.12
2019-05-22T13:51:15.136Z,32.07
2019-05-22T13:53:44.506Z,31.42
2019-05-22T13:56:13.281Z,30.39
2019-05-22T13:58:43.171Z,28.26
2019-05-22T14:01:12.560Z,26.24
2019-05-22T14:03:41.494Z,25.02
2019-05-22T14:06:10.373Z,25.61
2019-05-22T14:08:39.080Z,27.10
2019-05-22T14:11:08.685Z,29.65
2019-05-22T14:13:38.355Z,31.57
2019-05-22T14:16:07.343Z,27.04
2019-05-22T14:18:36.169Z,25.24
2019-05-22T14:21:05.107Z,23.21
2019-05-22T14:23:33.987Z,23.39
2019-05-22T14:26:02.854Z,21.25
2019-05-22T14:28:33.184Z,20.63
2019-05-22T14:31:01.917Z,23.93
2019-05-22T14:33:30.840Z,27.62
2019-05-22T14:35:59.614Z,27.07
2019-05-22T14:38:29.222Z,28.28
2019-05-22T14:40:58.056Z,28.86
2019-05-22T14:43:26.787Z,29.67
2019-05-22T14:45:55.501Z,30.75
2019-05-22T14:48:24.878Z,27.90
2019-05-22T14:50:53.561Z,23.97
2019-05-22T14:53:22.452Z,23.83
2019-05-22T14:55:52.114Z,22.37
2019-05-22T14:58:20.842Z,23.84
2019-05-22T15:00:49.783Z,26.63
2019-05-22T15:03:18.683Z,31.38
2019-05-22T15:05:47.519Z,33.43
2019-05-22T15:08:16.247Z,35.58
2019-05-22T15:10:45.701Z,36.82
2019-05-22T15:13:14.676Z,37.27
2019-05-22T15:15:43.801Z,32.00
2019-05-22T15:18:12.734Z,29.68
2019-05-22T15:21:01.417Z,27.63
2019-05-22T15:23:31.299Z,26.13
2019-05-22T15:26:00.739Z,23.77
2019-05-22T15:28:29.643Z,24.67
2019-05-22T15:30:58.385Z,25.70
2019-05-22T15:33:27.877Z,25.26
2019-05-22T15:35:56.940Z,22.64
2019-05-22T15:38:30.234Z,23.44
2019-05-22T15:40:59.068Z,25.29
2019-05-22T15:43:27.961Z,25.97
2019-05-22T15:45:58.591Z,27.42
2019-05-22T15:48:30.098Z,28.33
2019-05-22T15:51:02.522Z,28.21
2019-05-22T15:53:31.779Z,28.10
2019-05-22T15:56:02.388Z,27.89
2019-05-22T15:58:32.954Z,26.87
2019-05-22T16:01:02.747Z,24.47
2019-05-22T16:03:31.957Z,22.31
2019-05-22T16:06:00.662Z,22.49
2019-05-22T16:08:30.164Z,20.35
2019-05-22T16:11:00.799Z,20.62
2019-05-22T16:13:31.647Z,20.46
2019-05-22T16:16:00.951Z,20.61
2019-05-22T16:18:31.930Z,20.10
2019-05-22T16:21:02.573Z,21.07
2019-05-22T16:23:32.628Z,21.37
2019-05-22T16:26:02.977Z,22.66
2019-05-22T16:28:35.895Z,21.50
2019-05-22T16:31:02.943Z,22.80
2019-05-22T16:33:32.099Z,21.16
2019-05-22T16:36:01.287Z,22.34
2019-05-22T16:38:30.199Z,22.97
2019-05-22T16:40:58.891Z,24.25
2019-05-22T16:43:47.258Z,25.11
2019-05-22T16:45:59.234Z,25.48
2019-05-22T16:48:29.641Z,26.34
2019-05-22T16:50:58.700Z,28.17
2019-05-22T16:53:27.515Z,29.61
2019-05-22T16:55:57.471Z,30.15
2019-05-22T16:58:26.734Z,29.17
2019-05-22T17:00:56.783Z,30.16
2019-05-22T17:03:26.775Z,28.95
2019-05-22T17:05:55.443Z,28.03
2019-05-22T17:08:24.174Z,32.07
2019-05-22T17:10:52.902Z,33.97
2019-05-22T17:13:22.067Z,34.42
2019-05-22T17:15:51.188Z,34.08
2019-05-22T17:18:19.945Z,32.65
2019-05-22T17:20:48.959Z,34.09
2019-05-22T17:23:17.573Z,33.07
2019-05-22T17:25:46.511Z,32.59
2019-05-22T17:28:17.019Z,33.59
2019-05-22T17:30:46.821Z,33.17
2019-05-22T17:33:15.786Z,35.22
2019-05-22T17:35:44.792Z,35.58
2019-05-22T17:38:13.862Z,36.09
2019-05-22T17:40:42.754Z,36.95
2019-05-22T17:43:12.070Z,35.95
2019-05-22T17:45:41.699Z,35.89
2019-05-22T17:48:11.778Z,36.55
2019-05-22T17:50:41.480Z,37.95
2019-05-22T17:53:10.348Z,39.03
2019-05-22T17:55:39.251Z,40.46
2019-05-22T17:58:08.771Z,42.06
2019-05-22T18:00:40.790Z,41.64
2019-05-22T18:03:10.043Z,41.12
2019-05-22T18:05:39.672Z,42.20
2019-05-22T18:08:09.454Z,43.31
2019-05-22T18:10:40.877Z,43.32
2019-05-22T18:13:10.799Z,43.00
2019-05-22T18:15:39.426Z,41.76
2019-05-22T18:18:09.423Z,41.25
2019-05-22T18:20:43.427Z,41.07
2019-05-22T18:23:09.277Z,41.50
2019-05-22T18:25:38.042Z,42.33
2019-05-22T18:28:07.571Z,43.20
2019-05-22T18:30:38.008Z,44.43
2019-05-22T18:33:07.584Z,44.63
2019-05-22T18:35:36.271Z,45.38
2019-05-22T18:38:05.319Z,46.17
2019-05-22T18:40:34.196Z,47.01
2019-05-22T18:43:03.012Z,47.99
2019-05-22T18:45:33.538Z,48.87
2019-05-22T18:48:02.632Z,49.66
2019-05-22T18:50:32.980Z,50.64
2019-05-22T18:53:02.380Z,51.74
2019-05-22T18:55:31.318Z,52.02
2019-05-22T18:58:00.193Z,53.02
2019-05-22T19:00:30.398Z,54.04
2019-05-22T19:02:59.086Z,54.53
2019-05-22T19:05:29.484Z,55.53
2019-05-22T19:07:58.566Z,56.28
2019-05-22T19:10:27.704Z,57.16
2019-05-22T19:12:56.618Z,58.03
2019-05-22T19:15:25.693Z,59.22
2019-05-22T19:17:54.525Z,59.69
2019-05-22T19:20:23.448Z,60.77
2019-05-22T19:23:00.442Z,61.57
2019-05-22T19:25:22.616Z,61.72
2019-05-22T19:27:51.491Z,62.43
2019-05-22T19:30:20.717Z,62.58
2019-05-22T19:32:49.605Z,62.99
2019-05-22T19:35:18.358Z,63.31
2019-05-22T19:37:47.667Z,63.55
2019-05-22T19:40:17.558Z,63.96
2019-05-22T19:42:46.269Z,64.40
2019-05-22T19:45:16.653Z,65.11
2019-05-22T19:47:50.189Z,66.11
2019-05-22T19:50:23.085Z,67.06
2019-05-22T19:52:55.677Z,67.31
2019-05-22T19:55:25.788Z,67.88
2019-05-22T19:57:55.036Z,69.77
2019-05-22T20:00:25.176Z,71.00
2019-05-22T20:02:54.405Z,70.51
2019-05-22T20:05:24.041Z,70.82
2019-05-22T20:07:53.235Z,70.23
2019-05-22T20:10:22.069Z,70.08
2019-05-22T20:12:51.325Z,69.90
2019-05-22T20:15:20.480Z,69.69
2019-05-22T20:17:49.255Z,69.73
2019-05-22T20:20:19.295Z,70.30
2019-05-22T20:22:48.076Z,70.09
2019-05-22T20:25:17.161Z,70.28
2019-05-22T20:27:45.977Z,70.83
2019-05-22T20:30:15.780Z,71.71
2019-05-22T20:32:45.030Z,72.62
2019-05-22T20:35:13.801Z,72.17
2019-05-22T20:37:45.165Z,72.37
2019-05-22T20:40:14.279Z,72.64
2019-05-22T20:42:44.367Z,73.00
2019-05-22T20:45:15.146Z,73.52
2019-05-22T20:47:46.116Z,73.60
2019-05-22T20:50:17.099Z,73.08
2019-05-22T20:52:46.002Z,73.03
2019-05-22T20:55:16.650Z,72.43
2019-05-22T20:57:45.382Z,72.30
2019-05-22T21:00:16.935Z,72.32
2019-05-22T21:02:46.574Z,72.24
2019-05-22T21:05:15.792Z,72.66
2019-05-22T21:07:49.827Z,72.67
2019-05-22T21:10:19.910Z,72.99
2019-05-22T21:12:48.608Z,72.95
2019-05-22T21:15:18.206Z,73.46
2019-05-22T21:17:47.351Z,73.30
2019-05-22T21:20:18.595Z,73.78
2019-05-22T21:22:47.229Z,74.41
2019-05-22T21:25:17.025Z,75.10
2019-05-22T21:27:45.748Z,74.93
2019-05-22T21:30:14.975Z,74.86
2019-05-22T21:32:44.207Z,75.14
2019-05-22T21:35:13.999Z,75.26
2019-05-22T21:37:42.715Z,75.41
2019-05-22T21:40:11.951Z,75.79
2019-05-22T21:42:41.812Z,76.32
2019-05-22T21:45:11.244Z,76.81
2019-05-22T21:47:41.510Z,77.11
2019-05-22T21:50:11.093Z,77.87
2019-05-22T21:52:40.163Z,78.28
2019-05-22T21:55:09.452Z,78.50
2019-05-22T21:57:38.961Z,78.66
2019-05-22T22:00:11.116Z,78.89
2019-05-22T22:02:44.350Z,79.44
2019-05-22T22:05:13.734Z,79.96
2019-05-22T22:07:43.854Z,80.31
2019-05-22T22:10:15.277Z,80.49
2019-05-22T22:12:44.374Z,80.91
2019-05-22T22:15:15.169Z,81.43
2019-05-22T22:17:43.881Z,81.91
2019-05-22T22:20:13.020Z,82.63
2019-05-22T22:22:41.750Z,82.48
2019-05-22T22:25:11.108Z,82.51
2019-05-22T22:27:40.466Z,82.35
2019-05-22T22:30:15.643Z,82.23
2019-05-22T22:32:45.409Z,82.33
2019-05-22T22:35:16.405Z,82.54
2019-05-22T22:37:46.396Z,82.77
2019-05-22T22:40:17.742Z,82.98
2019-05-22T22:42:48.736Z,83.31
2019-05-22T22:45:24.433Z,83.64
2019-05-22T22:47:54.189Z,83.90
2019-05-22T22:50:23.323Z,84.26
2019-05-22T22:52:52.017Z,84.49
2019-05-22T22:55:22.277Z,85.00
2019-05-22T22:57:52.117Z,85.36
2019-05-22T23:00:27.132Z,85.60
2019-05-22T23:02:56.901Z,85.75
2019-05-22T23:05:25.582Z,85.95
2019-05-22T23:07:54.948Z,86.26
2019-05-22T23:10:25.697Z,86.56
2019-05-22T23:12:54.957Z,86.87
2019-05-22T23:15:25.609Z,87.25
2019-05-22T23:17:55.397Z,87.52
2019-05-22T23:20:23.074Z,88.01
2019-05-22T23:22:50.473Z,88.08
2019-05-22T23:25:19.581Z,88.28
2019-05-22T23:27:48.492Z,88.54
2019-05-22T23:30:18.653Z,88.85
2019-05-22T23:32:47.528Z,89.06
2019-05-22T23:35:17.329Z,89.41
2019-05-22T23:37:46.275Z,89.67
2019-05-22T23:40:19.706Z,89.95
2019-05-22T23:42:49.310Z,90.29
2019-05-22T23:45:20.381Z,90.60
2019-05-22T23:48:14.245Z,90.84
2019-05-22T23:50:44.663Z,91.22
2019-05-22T23:53:13.431Z,91.61
2019-05-22T23:55:43.011Z,91.97
2019-05-22T23:58:14.292Z,92.00
